Time;durP1;ratioP1;P1;durP2;ratioP2;P2;SDS_P1;SDS_P2;PMS_P1;PMS_P2;Temp;Humidity;BMP_temperature;BMP_pressure;BME280_temperature;BME280_humidity;BME280_pressure;Samples;Min_cycle;Max_cycle;Signal;HPM_P1;HPM_P2
2023/10/27 00:04:19;;;;;;;72.65;18.48;;;;;;;8.05;100.00;98263.41;10324683;28;20046;-78
2023/10/27 00:09:22;;;;;;;90.72;18.95;;;;;;;7.98;100.00;98267.69;10338118;28;20069;-79
2023/10/27 00:14:28;;;;;;;144.73;20.13;;;;;;;7.82;100.00;98263.97;10341979;28;20074;-80
2023/10/27 00:19:31;;;;;;;108.43;17.50;;;;;;;7.80;100.00;98273.97;10335526;28;20057;-80
2023/10/27 00:24:34;;;;;;;69.60;16.80;;;;;;;7.90;100.00;98266.69;10345573;28;20058;-79
2023/10/27 00:29:38;;;;;;;138.73;18.55;;;;;;;7.91;100.00;98257.66;10308140;28;20173;-78
2023/10/27 00:34:43;;;;;;;71.30;16.52;;;;;;;7.84;100.00;98255.75;10339605;28;20046;-79
2023/10/27 00:39:46;;;;;;;141.95;18.30;;;;;;;7.81;100.00;98246.22;10350415;28;20038;-79
2023/10/27 00:44:51;;;;;;;169.13;19.25;;;;;;;7.68;100.00;98237.81;10334183;28;20045;-79
2023/10/27 00:49:55;;;;;;;75.32;18.95;;;;;;;7.70;100.00;98238.47;10339958;28;20167;-79
2023/10/27 00:55:00;;;;;;;160.52;21.98;;;;;;;7.64;100.00;98245.28;10351191;28;20041;-79
2023/10/27 01:00:06;;;;;;;155.43;22.83;;;;;;;7.64;100.00;98236.44;10346966;28;20137;-79
2023/10/27 01:05:10;;;;;;;68.18;21.77;;;;;;;7.67;100.00;98231.63;10349643;28;20054;-79
2023/10/27 01:10:13;;;;;;;81.53;20.15;;;;;;;7.69;100.00;98226.97;10348862;28;20070;-79
2023/10/27 01:15:18;;;;;;;264.38;26.27;;;;;;;7.67;100.00;98223.59;10336222;28;20053;-79
2023/10/27 01:20:21;;;;;;;134.25;20.77;;;;;;;7.67;100.00;98223.59;10334929;28;20058;-80
2023/10/27 01:25:25;;;;;;;149.82;21.23;;;;;;;7.57;100.00;98230.91;10330595;28;20121;-78
2023/10/27 01:30:29;;;;;;;212.68;22.98;;;;;;;7.54;100.00;98228.53;10321915;28;20122;-79
2023/10/27 01:35:32;;;;;;;203.98;22.85;;;;;;;7.61;100.00;98223.41;10323739;28;20061;-79
2023/10/27 01:40:36;;;;;;;81.45;19.83;;;;;;;7.67;100.00;98225.44;10338014;28;20054;-79
2023/10/27 01:45:39;;;;;;;75.40;18.40;;;;;;;7.69;100.00;98231.47;10340998;28;20042;-81
2023/10/27 01:50:42;;;;;;;111.47;20.05;;;;;;;7.64;100.00;98226.59;10343259;28;20042;-78
2023/10/27 01:55:47;;;;;;;89.60;19.50;;;;;;;7.71;100.00;98224.16;10340280;28;20044;-80
2023/10/27 02:00:50;;;;;;;57.55;18.38;;;;;;;7.67;100.00;98218.25;10338227;28;21159;-80
2023/10/27 02:05:53;;;;;;;56.05;16.70;;;;;;;7.57;100.00;98217.56;10325015;28;20050;-80
2023/10/27 02:10:57;;;;;;;45.83;17.85;;;;;;;7.59;100.00;98215.53;10299663;28;20141;-80
2023/10/27 02:16:00;;;;;;;43.72;18.00;;;;;;;7.57;100.00;98209.53;10303078;28;20049;-80
2023/10/27 02:21:04;;;;;;;39.65;16.67;;;;;;;7.58;100.00;98221.88;10292744;28;20058;-79
2023/10/27 02:26:09;;;;;;;63.70;18.42;;;;;;;7.61;100.00;98223.41;10294732;28;20096;-78
2023/10/27 02:31:12;;;;;;;73.78;19.77;;;;;;;7.52;100.00;98214.50;10286111;28;20050;-78
2023/10/27 02:36:15;;;;;;;40.50;18.50;;;;;;;7.55;100.00;98213.34;10303074;28;20109;-78
2023/10/27 02:41:19;;;;;;;45.60;19.35;;;;;;;7.72;100.00;98204.44;10297080;28;20061;-79
2023/10/27 02:46:22;;;;;;;82.20;19.08;;;;;;;7.73;100.00;98211.44;10296457;28;20166;-78
2023/10/27 02:51:26;;;;;;;92.72;19.00;;;;;;;7.72;100.00;98202.59;10291420;28;20061;-79
2023/10/27 02:56:30;;;;;;;54.42;19.23;;;;;;;7.71;100.00;98198.25;10296768;28;21157;-79
2023/10/27 03:01:33;;;;;;;65.22;20.38;;;;;;;7.69;100.00;98192.22;10295120;28;20047;-78
2023/10/27 03:06:37;;;;;;;40.38;18.85;;;;;;;7.74;100.00;98183.75;10334446;28;20034;-79
2023/10/27 03:11:41;;;;;;;39.30;18.00;;;;;;;7.64;100.00;98197.19;10319046;28;20065;-78
2023/10/27 03:16:44;;;;;;;39.88;18.73;;;;;;;7.66;100.00;98191.72;10293058;28;20050;-80
2023/10/27 03:21:47;;;;;;;42.08;18.45;;;;;;;7.73;100.00;98192.72;10324230;28;20046;-78
2023/10/27 03:26:51;;;;;;;42.42;18.45;;;;;;;7.84;100.00;98183.59;10288170;28;20093;-77
2023/10/27 03:31:54;;;;;;;55.72;19.20;;;;;;;7.77;100.00;98195.94;10295191;28;20046;-79
2023/10/27 03:36:57;;;;;;;40.78;18.02;;;;;;;7.68;100.00;98193.22;10296541;28;20046;-78
2023/10/27 03:42:02;;;;;;;31.73;16.05;;;;;;;7.68;100.00;98184.38;10301118;28;20067;-78
2023/10/27 03:47:06;;;;;;;30.13;15.00;;;;;;;7.58;100.00;98181.81;10311868;28;21154;-78
2023/10/27 03:52:09;;;;;;;32.35;15.30;;;;;;;7.62;100.00;98193.84;10323557;28;20034;-78
2023/10/27 03:57:14;;;;;;;31.30;15.20;;;;;;;7.57;100.00;98177.47;10303267;28;20066;-78
2023/10/27 04:02:17;;;;;;;37.33;16.83;;;;;;;7.47;100.00;98160.72;10302126;28;21083;-79
2023/10/27 04:07:20;;;;;;;37.75;16.73;;;;;;;7.45;100.00;98170.72;10304513;28;20129;-79
2023/10/27 04:12:24;;;;;;;33.55;15.43;;;;;;;7.46;100.00;98167.03;10297414;28;20050;-78
2023/10/27 04:17:27;;;;;;;37.63;14.70;;;;;;;7.58;100.00;98157.78;10288759;28;20051;-78
2023/10/27 04:22:31;;;;;;;36.33;16.33;;;;;;;7.54;100.00;98155.56;10301877;28;20054;-78
2023/10/27 04:27:36;;;;;;;35.85;15.02;;;;;;;7.56;100.00;98150.91;10292360;28;21202;-78
2023/10/27 04:32:40;;;;;;;35.72;15.93;;;;;;;7.56;100.00;98149.06;10298755;28;20053;-78
2023/10/27 04:37:43;;;;;;;38.22;15.52;;;;;;;7.56;100.00;98149.06;10294504;28;20066;-79
2023/10/27 04:42:47;;;;;;;34.75;15.50;;;;;;;7.59;100.00;98151.41;10298663;28;20050;-79
2023/10/27 04:47:50;;;;;;;32.38;15.32;;;;;;;7.61;100.00;98140.59;10289080;28;20047;-78
2023/10/27 04:52:53;;;;;;;37.72;16.70;;;;;;;7.62;100.00;98139.56;10297344;28;20077;-79
2023/10/27 04:57:57;;;;;;;36.58;15.50;;;;;;;7.67;100.00;98135.44;10301463;28;20050;-78
2023/10/27 05:03:00;;;;;;;41.72;16.45;;;;;;;7.70;100.00;98139.63;10294223;28;20051;-78
2023/10/27 05:08:03;;;;;;;38.22;15.98;;;;;;;7.70;100.00;98129.75;10292567;28;20077;-77
2023/10/27 05:13:07;;;;;;;48.20;17.40;;;;;;;7.66;100.00;98131.09;10290572;28;20042;-78
2023/10/27 05:18:10;;;;;;;46.15;18.10;;;;;;;7.69;100.00;98132.59;10279994;28;20122;-78
2023/10/27 05:23:13;;;;;;;41.63;17.58;;;;;;;7.71;100.00;98126.09;10291402;28;20053;-78
2023/10/27 05:28:18;;;;;;;47.00;18.33;;;;;;;7.70;100.00;98124.41;10287905;28;20066;-78
2023/10/27 05:33:21;;;;;;;41.33;17.90;;;;;;;7.62;100.00;98124.38;10295349;28;20140;-79
2023/10/27 05:38:24;;;;;;;41.35;17.05;;;;;;;7.63;100.00;98123.41;10307698;28;20509;-80
2023/10/27 05:43:31;;;;;;;38.85;15.65;;;;;;;7.65;100.00;98121.41;10289150;28;20057;-80
2023/10/27 05:48:34;;;;;;;36.72;15.73;;;;;;;7.65;100.00;98124.09;10292670;28;20049;-80
2023/10/27 05:53:37;;;;;;;41.53;17.08;;;;;;;7.64;100.00;98130.41;10282423;28;20047;-79
2023/10/27 05:58:41;;;;;;;40.05;16.52;;;;;;;7.65;100.00;98137.44;10291872;28;20101;-78
2023/10/27 06:03:44;;;;;;;36.50;16.50;;;;;;;7.68;100.00;98142.47;10312861;28;20061;-78
2023/10/27 06:08:48;;;;;;;40.38;17.17;;;;;;;7.71;100.00;98147.47;10307506;28;20054;-79
2023/10/27 06:13:54;;;;;;;41.08;17.73;;;;;;;7.79;100.00;98152.03;10297376;28;20138;-79
2023/10/27 06:18:57;;;;;;;41.50;18.05;;;;;;;7.90;100.00;98146.41;10324970;28;20054;-80
2023/10/27 06:24:01;;;;;;;42.95;18.95;;;;;;;7.93;100.00;98146.06;10317631;28;20077;-80
2023/10/27 06:29:05;;;;;;;41.88;18.40;;;;;;;7.98;100.00;98144.72;10306836;28;20057;-79
2023/10/27 06:34:08;;;;;;;42.08;18.75;;;;;;;8.08;100.00;98150.78;10299021;28;20050;-79
2023/10/27 06:39:11;;;;;;;38.53;17.38;;;;;;;8.08;100.00;98154.28;10302580;28;20054;-79
2023/10/27 06:44:16;;;;;;;41.65;19.20;;;;;;;8.10;100.00;98146.13;10328939;28;20054;-81
2023/10/27 06:49:19;;;;;;;44.95;17.58;;;;;;;8.18;100.00;98154.16;10282881;28;20058;-80
2023/10/27 06:54:23;;;;;;;37.08;17.48;;;;;;;8.25;100.00;98151.66;10303479;28;20050;-81
2023/10/27 06:59:29;;;;;;;37.63;18.30;;;;;;;8.34;100.00;98158.72;10283166;28;20057;-80
2023/10/27 07:04:32;;;;;;;43.97;19.30;;;;;;;8.45;100.00;98154.84;10305628;28;20051;-80
2023/10/27 07:09:35;;;;;;;40.88;18.08;;;;;;;8.50;100.00;98158.78;10294864;28;20508;-80
2023/10/27 07:14:40;;;;;;;42.65;18.83;;;;;;;8.56;100.00;98162.63;10313793;28;20039;-80
2023/10/27 07:19:43;;;;;;;40.55;18.77;;;;;;;8.58;100.00;98157.91;10308747;28;20075;-80
2023/10/27 07:24:46;;;;;;;39.95;17.08;;;;;;;8.56;100.00;98160.78;10284181;28;20524;-78
2023/10/27 07:29:50;;;;;;;38.60;16.67;;;;;;;8.66;100.00;98160.59;10305629;28;20046;-80
2023/10/27 07:34:55;;;;;;;39.60;17.38;;;;;;;8.73;100.00;98161.63;10302249;28;20057;-80
2023/10/27 07:39:58;;;;;;;39.80;16.88;;;;;;;8.79;100.00;98162.78;10287429;28;20054;-78
2023/10/27 07:45:04;;;;;;;36.22;16.27;;;;;;;8.91;100.00;98163.28;10289608;28;20054;-78
2023/10/27 07:50:07;;;;;;;33.72;16.98;;;;;;;8.93;100.00;98159.44;10295928;28;20050;-79
2023/10/27 07:55:10;;;;;;;34.78;15.88;;;;;;;8.96;100.00;98166.31;10292118;28;20058;-78
2023/10/27 08:00:15;;;;;;;33.92;16.42;;;;;;;8.96;100.00;98159.09;10293550;28;20131;-79
2023/10/27 08:05:18;;;;;;;35.63;16.42;;;;;;;8.91;100.00;98158.78;10292479;28;20050;-79
2023/10/27 08:10:21;;;;;;;32.20;16.45;;;;;;;8.87;100.00;98167.31;10283705;28;20061;-77
2023/10/27 08:15:26;;;;;;;31.27;16.75;;;;;;;8.82;100.00;98162.47;10290781;28;20050;-80
2023/10/27 08:20:30;;;;;;;35.67;16.88;;;;;;;8.89;100.00;98162.66;10290706;28;20137;-80
2023/10/27 08:25:33;;;;;;;35.38;16.45;;;;;;;8.90;100.00;98165.13;10292126;28;20611;-79
2023/10/27 08:30:37;;;;;;;36.35;17.25;;;;;;;8.95;100.00;98162.78;10301938;28;20110;-79
2023/10/27 08:35:40;;;;;;;34.30;17.63;;;;;;;9.00;100.00;98163.13;10298964;28;20042;-80
2023/10/27 08:40:44;;;;;;;40.72;17.17;;;;;;;8.98;100.00;98167.81;10315950;28;20070;-77
2023/10/27 08:45:49;;;;;;;43.50;17.90;;;;;;;8.95;100.00;98170.84;10312118;28;20093;-79
2023/10/27 08:50:56;;;;;;;49.13;18.58;;;;;;;8.98;100.00;98167.81;10296220;28;20260;-78
2023/10/27 08:56:00;;;;;;;44.28;18.25;;;;;;;9.06;100.00;98167.81;10300167;28;20065;-77
2023/10/27 09:01:04;;;;;;;44.28;17.60;;;;;;;9.18;100.00;98170.13;10294739;28;20547;-77
2023/10/27 09:06:07;;;;;;;44.05;19.17;;;;;;;9.19;100.00;98172.66;10302988;28;20893;-78
2023/10/27 09:11:10;;;;;;;50.63;21.25;;;;;;;9.25;100.00;98168.47;10294152;28;20050;-77
2023/10/27 09:16:25;;;;;;;49.85;19.05;;;;;;;9.33;100.00;98173.81;10332233;28;20042;-78
2023/10/27 09:21:33;;;;;;;51.95;19.52;;;;;;;9.29;100.00;98170.63;10326067;28;20044;-80
2023/10/27 09:26:46;;;;;;;51.83;21.00;;;;;;;9.26;100.00;98175.47;10326457;28;20065;-79
2023/10/27 09:31:51;;;;;;;50.88;21.33;;;;;;;9.34;100.00;98180.00;10340682;28;20038;-79
2023/10/27 09:36:57;;;;;;;43.20;19.13;;;;;;;9.39;100.00;98178.47;10341425;28;20065;-79
2023/10/27 09:42:03;;;;;;;47.90;20.23;;;;;;;9.38;100.00;98176.81;10331689;28;20049;-79
2023/10/27 09:47:14;;;;;;;46.92;17.67;;;;;;;9.50;100.00;98171.94;10337401;28;20113;-79
2023/10/27 09:52:20;;;;;;;43.08;17.63;;;;;;;9.54;100.00;98167.06;10333806;28;20699;-79
2023/10/27 09:57:24;;;;;;;43.35;18.48;;;;;;;9.56;100.00;98167.72;10337291;28;20491;-79
2023/10/27 10:02:30;;;;;;;40.35;17.77;;;;;;;9.56;100.00;98171.25;10323842;28;20035;-78
2023/10/27 10:07:35;;;;;;;43.45;18.25;;;;;;;9.60;100.00;98169.91;10323105;28;20788;-79
2023/10/27 10:13:00;;;;;;;42.78;19.23;;;;;;;9.73;100.00;98169.34;10325752;28;20544;-79
2023/10/27 10:18:06;;;;;;;36.78;17.17;;;;;;;9.75;100.00;98166.50;10317678;28;20049;-78
2023/10/27 10:23:09;;;;;;;38.42;17.17;;;;;;;9.73;100.00;98172.03;10318459;28;20041;-79
2023/10/27 10:28:25;;;;;;;43.40;17.73;;;;;;;9.72;100.00;98173.03;10327586;28;20048;-79
2023/10/27 10:33:31;;;;;;;34.15;17.27;;;;;;;9.81;100.00;98176.53;10336288;28;20042;-80
2023/10/27 10:38:38;;;;;;;40.47;18.20;;;;;;;9.60;100.00;98175.25;10324367;28;20069;-80
2023/10/27 10:43:41;;;;;;;38.47;18.05;;;;;;;9.67;100.00;98168.19;10339329;28;20050;-80
2023/10/27 10:48:47;;;;;;;41.92;18.92;;;;;;;9.73;100.00;98172.84;10337183;28;20505;-79
2023/10/27 10:53:53;;;;;;;41.85;18.45;;;;;;;9.84;100.00;98168.13;10333847;28;20051;-79
2023/10/27 10:58:56;;;;;;;34.00;16.70;;;;;;;9.83;100.00;98163.78;10334127;28;20045;-79
2023/10/27 11:04:00;;;;;;;37.97;17.33;;;;;;;9.85;100.00;98169.81;10348185;28;20050;-78
2023/10/27 11:09:04;;;;;;;40.83;17.83;;;;;;;9.79;100.00;98168.66;10343322;28;20047;-79
2023/10/27 11:14:07;;;;;;;43.88;19.63;;;;;;;9.87;100.00;98171.34;10344231;28;20058;-80
2023/10/27 11:19:16;;;;;;;40.40;19.63;;;;;;;9.88;100.00;98169.50;10340507;28;20034;-81
2023/10/27 11:24:20;;;;;;;36.63;17.92;;;;;;;9.81;100.00;98160.44;10341256;28;20073;-80
2023/10/27 11:29:23;;;;;;;36.28;18.42;;;;;;;9.80;100.00;98158.78;10342948;28;20125;-80
2023/10/27 11:34:32;;;;;;;37.03;17.33;;;;;;;9.86;100.00;98148.22;10344435;28;20065;-78
2023/10/27 11:39:38;;;;;;;35.95;16.98;;;;;;;9.96;100.00;98155.22;10339375;28;20051;-80
2023/10/27 11:44:44;;;;;;;36.85;18.67;;;;;;;10.10;100.00;98146.44;10340222;28;20421;-79
2023/10/27 11:49:48;;;;;;;40.22;18.27;;;;;;;10.11;100.00;98140.06;10344839;28;20092;-79
2023/10/27 11:54:51;;;;;;;35.85;17.58;;;;;;;10.21;100.00;98146.03;10340344;28;20137;-78
2023/10/27 11:59:54;;;;;;;34.15;17.30;;;;;;;10.22;100.00;98149.56;10341412;28;20058;-79
2023/10/27 12:04:59;;;;;;;33.55;16.98;;;;;;;10.21;100.00;98146.03;10337608;28;20065;-79
2023/10/27 12:10:09;;;;;;;37.97;17.92;;;;;;;10.35;100.00;98139.06;10335865;28;20047;-80
2023/10/27 12:15:15;;;;;;;37.40;18.02;;;;;;;10.45;100.00;98149.56;10348823;28;20042;-80
2023/10/27 12:20:19;;;;;;;33.05;17.10;;;;;;;10.43;100.00;98143.56;10346648;28;20053;-81
2023/10/27 12:25:22;;;;;;;34.10;16.27;;;;;;;10.44;100.00;98142.53;10340931;28;20042;-81
2023/10/27 12:30:25;;;;;;;27.63;14.63;;;;;;;10.52;100.00;98142.47;10340012;28;20054;-79
2023/10/27 12:35:30;;;;;;;29.70;14.77;;;;;;;10.61;100.00;98149.47;10334190;28;20053;-79
2023/10/27 12:40:36;;;;;;;28.00;14.60;;;;;;;10.51;100.00;98151.56;10334270;28;20043;-81
2023/10/27 12:45:39;;;;;;;27.52;14.50;;;;;;;10.47;100.00;98147.56;10338895;28;20097;-80
2023/10/27 12:50:44;;;;;;;28.58;15.10;;;;;;;10.43;100.00;98140.88;10332183;28;20054;-79
2023/10/27 12:55:48;;;;;;;26.77;14.93;;;;;;;10.48;100.00;98149.25;10340378;28;20046;-79
2023/10/27 13:00:51;;;;;;;53.35;25.20;;;;;;;10.47;100.00;98147.56;10336964;28;20050;-78
2023/10/27 13:05:56;;;;;;;32.00;15.43;;;;;;;10.35;100.00;98141.75;10331877;28;20053;-79
2023/10/27 13:11:04;;;;;;;10.40;5.70;;;;;;;10.17;100.00;98136.66;10336220;28;20523;-79
2023/10/27 13:16:13;;;;;;;7.97;5.18;;;;;;;10.05;100.00;98138.06;10338958;28;20078;-80
2023/10/27 13:21:18;;;;;;;11.00;5.55;;;;;;;10.15;100.00;98133.34;10329188;28;20054;-79
2023/10/27 13:26:21;;;;;;;9.40;4.32;;;;;;;10.23;100.00;98137.78;10353324;28;20030;-81
2023/10/27 13:31:26;;;;;;;7.90;4.38;;;;;;;10.29;100.00;98131.75;10357895;28;20041;-80
2023/10/27 13:36:30;;;;;;;6.80;4.75;;;;;;;10.37;100.00;98131.69;10333166;28;20074;-80
2023/10/27 13:41:35;;;;;;;11.20;6.25;;;;;;;10.48;100.00;98139.34;10336794;28;20074;-80
2023/10/27 13:46:38;;;;;;;12.80;7.70;;;;;;;10.33;100.00;98141.09;10364790;28;20042;-79
2023/10/27 13:51:43;;;;;;;14.05;8.75;;;;;;;10.20;100.00;98147.03;10345084;28;20035;-79
2023/10/27 13:56:46;;;;;;;14.27;7.78;;;;;;;10.13;100.00;98143.41;10340340;28;20043;-77
2023/10/27 14:01:49;;;;;;;9.05;6.32;;;;;;;10.07;100.00;98142.25;10344232;28;20062;-78
2023/10/27 14:06:53;;;;;;;13.65;6.65;;;;;;;9.88;100.00;98146.19;10347920;28;20057;-78
2023/10/27 14:11:58;;;;;;;12.32;6.70;;;;;;;9.87;100.00;98149.03;10341787;28;20046;-78
2023/10/27 14:17:01;;;;;;;13.35;7.70;;;;;;;9.96;100.00;98150.69;10346661;28;20056;-79
2023/10/27 14:22:05;;;;;;;17.27;8.60;;;;;;;10.01;100.00;98156.38;10345209;28;20432;-79
2023/10/27 14:27:08;;;;;;;10.20;6.18;;;;;;;9.97;100.00;98141.63;10340179;28;20053;-79
2023/10/27 14:32:11;;;;;;;14.27;6.55;;;;;;;9.89;100.00;98153.22;10342316;28;20074;-79
2023/10/27 14:37:15;;;;;;;13.48;6.25;;;;;;;9.73;100.00;98153.25;10335117;28;20115;-79
2023/10/27 14:42:19;;;;;;;12.45;7.60;;;;;;;9.77;100.00;98159.13;10327644;28;20074;-79
2023/10/27 14:47:22;;;;;;;11.70;7.15;;;;;;;9.92;100.00;98162.78;10324624;28;20062;-80
2023/10/27 14:52:45;;;;;;;10.40;6.95;;;;;;;9.85;100.00;98162.59;10326787;28;20097;-79
2023/10/27 14:57:49;;;;;;;21.75;15.15;;;;;;;9.80;100.00;98164.97;10336293;28;20042;-80
2023/10/27 15:02:52;;;;;;;16.73;12.45;;;;;;;9.84;100.00;98170.81;10342205;28;20070;-78
2023/10/27 15:07:56;;;;;;;14.98;7.45;;;;;;;9.86;100.00;98174.19;10341021;28;20047;-79
2023/10/27 15:12:59;;;;;;;17.45;9.55;;;;;;;9.77;100.00;98167.16;10342405;28;20058;-80
2023/10/27 15:18:03;;;;;;;12.52;6.88;;;;;;;9.76;100.00;98165.47;10330818;28;20049;-78
2023/10/27 15:23:09;;;;;;;14.93;8.88;;;;;;;9.72;100.00;98170.34;10341309;28;20066;-80
2023/10/27 15:28:12;;;;;;;17.33;9.18;;;;;;;9.75;100.00;98169.19;10341103;28;20055;-79
2023/10/27 15:33:15;;;;;;;17.88;10.20;;;;;;;9.74;100.00;98165.66;10335043;28;20077;-79
2023/10/27 15:38:20;;;;;;;16.02;9.63;;;;;;;9.77;100.00;98175.22;10341346;28;20478;-79
2023/10/27 15:43:23;;;;;;;18.00;9.05;;;;;;;9.76;100.00;98174.34;10334573;28;20786;-78
2023/10/27 15:48:26;;;;;;;15.93;10.07;;;;;;;9.76;100.00;98173.53;10337999;28;20421;-78
2023/10/27 15:53:32;;;;;;;17.33;11.57;;;;;;;9.72;100.00;98167.69;10360419;28;20029;-78
2023/10/27 15:58:36;;;;;;;9.75;7.65;;;;;;;9.76;100.00;98181.56;10344801;28;20080;-80
2023/10/27 16:03:39;;;;;;;13.77;8.38;;;;;;;9.72;100.00;98173.03;10334898;28;20560;-80
2023/10/27 16:08:44;;;;;;;12.43;7.82;;;;;;;9.75;100.00;98175.38;10342244;28;20038;-79
2023/10/27 16:13:47;;;;;;;15.13;8.98;;;;;;;9.76;100.00;98177.03;10334494;28;20034;-80
2023/10/27 16:18:50;;;;;;;31.75;24.95;;;;;;;9.68;100.00;98179.75;10343213;28;20039;-80
2023/10/27 16:23:56;;;;;;;16.95;13.23;;;;;;;9.60;100.00;98182.44;10341866;28;20061;-80
2023/10/27 16:28:59;;;;;;;22.77;13.55;;;;;;;9.28;100.00;98195.75;10346526;28;20054;-79
2023/10/27 16:34:03;;;;;;;21.08;15.15;;;;;;;9.56;100.00;98197.22;10335614;28;20387;-79
2023/10/27 16:39:08;;;;;;;20.40;14.57;;;;;;;9.63;100.00;98199.03;10325690;28;20066;-80
2023/10/27 16:44:11;;;;;;;18.88;14.35;;;;;;;9.54;100.00;98213.44;10334594;28;20050;-81
2023/10/27 16:49:14;;;;;;;17.58;14.00;;;;;;;9.19;100.00;98212.00;10333044;28;20046;-80
2023/10/27 16:54:18;;;;;;;18.65;14.25;;;;;;;9.48;100.00;98219.50;10334530;28;20048;-81
2023/10/27 16:59:21;;;;;;;16.15;13.27;;;;;;;9.40;100.00;98214.16;10339943;28;20056;-81
2023/10/27 17:04:24;;;;;;;17.88;13.43;;;;;;;9.36;100.00;98221.69;10344765;28;20047;-81
2023/10/27 17:09:28;;;;;;;18.13;14.02;;;;;;;9.45;100.00;98227.88;10338541;28;20121;-81
2023/10/27 17:14:31;;;;;;;17.05;14.30;;;;;;;9.40;100.00;98231.06;10351129;28;20095;-79
2023/10/27 17:19:34;;;;;;;20.38;14.73;;;;;;;9.35;100.00;98232.56;10362896;28;20093;-81
2023/10/27 17:24:42;;;;;;;21.27;14.90;;;;;;;9.42;100.00;98238.94;10339246;28;20042;-81
2023/10/27 17:29:47;;;;;;;20.88;15.48;;;;;;;9.46;100.00;98238.44;10334657;28;20053;-81
2023/10/27 17:34:52;;;;;;;20.55;13.75;;;;;;;9.34;100.00;98242.44;10326856;28;20042;-81
2023/10/27 17:39:56;;;;;;;18.70;15.27;;;;;;;9.45;100.00;98246.63;10345108;28;20046;-80
2023/10/27 17:44:59;;;;;;;16.70;12.68;;;;;;;9.27;100.00;98253.00;10346403;28;20039;-80
2023/10/27 17:50:02;;;;;;;18.20;13.20;;;;;;;9.24;100.00;98271.25;10343953;28;20107;-80
2023/10/27 17:55:08;;;;;;;17.08;13.02;;;;;;;9.43;100.00;98278.94;10340505;28;20051;-79
2023/10/27 18:00:12;;;;;;;21.27;11.55;;;;;;;9.35;100.00;98278.09;10332039;28;20046;-82
2023/10/27 18:05:16;;;;;;;16.73;11.48;;;;;;;9.46;100.00;98278.63;10355189;28;20042;-81
2023/10/27 18:10:21;;;;;;;14.98;9.43;;;;;;;9.24;100.00;98282.81;10343056;28;20061;-80
2023/10/27 18:15:24;;;;;;;13.00;9.52;;;;;;;9.36;100.00;98283.31;10344167;28;20061;-81
2023/10/27 18:20:27;;;;;;;14.18;10.02;;;;;;;9.41;100.00;98289.00;10349536;28;20058;-81
2023/10/27 18:25:31;;;;;;;15.55;9.43;;;;;;;9.23;100.00;98296.38;10323769;28;20042;-79
2023/10/27 18:30:35;;;;;;;15.50;11.38;;;;;;;9.16;100.00;98287.31;10338198;28;20050;-80
2023/10/27 18:35:38;;;;;;;16.73;10.95;;;;;;;9.26;100.00;98291.50;10343926;28;20043;-81
2023/10/27 18:40:43;;;;;;;18.45;10.90;;;;;;;9.35;100.00;98295.06;10327889;28;20051;-82
2023/10/27 18:45:55;;;;;;;21.33;13.02;;;;;;;9.39;100.00;98291.00;10292012;28;20051;-80
2023/10/27 18:50:58;;;;;;;20.40;13.30;;;;;;;9.28;100.00;98300.22;10305620;28;20038;-81
2023/10/27 18:56:06;;;;;;;23.92;14.98;;;;;;;9.22;100.00;98302.75;10299951;28;20043;-80
2023/10/27 19:01:09;;;;;;;24.13;14.85;;;;;;;9.17;100.00;98307.75;10307407;28;20065;-81
2023/10/27 19:06:13;;;;;;;27.13;14.52;;;;;;;9.20;100.00;98318.97;10305251;28;20051;-81
2023/10/27 19:11:20;;;;;;;24.65;14.98;;;;;;;9.29;100.00;98325.16;10303420;28;20050;-80
2023/10/27 19:16:24;;;;;;;30.08;16.02;;;;;;;9.31;100.00;98328.53;10279799;28;20138;-80
2023/10/27 19:21:27;;;;;;;28.63;14.55;;;;;;;9.24;100.00;98338.22;10296828;28;20490;-82
2023/10/27 19:26:32;;;;;;;33.63;16.27;;;;;;;9.03;100.00;98339.53;10294775;28;20105;-80
2023/10/27 19:31:35;;;;;;;32.90;18.42;;;;;;;9.40;100.00;98346.25;10296700;28;20100;-81
2023/10/27 19:36:38;;;;;;;34.55;17.67;;;;;;;9.37;100.00;98348.44;10307903;28;20070;-80
2023/10/27 19:41:42;;;;;;;32.45;18.88;;;;;;;9.31;100.00;98358.00;10302186;28;20047;-81
2023/10/27 19:46:45;;;;;;;35.10;19.65;;;;;;;9.37;100.00;98348.44;10302404;28;20050;-81
2023/10/27 19:51:48;;;;;;;45.55;27.65;;;;;;;9.43;100.00;98359.31;10311852;28;20047;-82
2023/10/27 19:56:52;;;;;;;37.92;19.88;;;;;;;9.42;100.00;98357.66;10313206;28;20037;-82
2023/10/27 20:01:55;;;;;;;64.63;38.20;;;;;;;9.42;100.00;98357.66;10301779;28;20066;-81
2023/10/27 20:06:58;;;;;;;48.25;30.75;;;;;;;9.47;100.00;98367.91;10303602;28;20037;-81
2023/10/27 20:12:03;;;;;;;36.33;20.05;;;;;;;9.40;100.00;98370.38;10299124;28;20055;-81
2023/10/27 20:17:07;;;;;;;31.35;16.98;;;;;;;9.39;100.00;98373.25;10289087;28;20049;-82
2023/10/27 20:22:10;;;;;;;31.67;18.73;;;;;;;9.47;100.00;98378.63;10305434;28;20053;-80
2023/10/27 20:27:14;;;;;;;64.45;40.38;;;;;;;9.48;100.00;98399.03;10310386;28;20062;-80
2023/10/27 20:32:17;;;;;;;76.10;51.95;;;;;;;9.43;100.00;98379.94;10288854;28;20058;-79
2023/10/27 20:37:21;;;;;;;38.28;26.52;;;;;;;9.41;100.00;98395.38;10306508;28;20097;-79
2023/10/27 20:42:27;;;;;;;27.15;16.52;;;;;;;9.31;100.00;98386.63;10301518;28;20061;-80
2023/10/27 20:47:30;;;;;;;24.52;13.32;;;;;;;8.99;100.00;98394.41;10325524;28;20098;-80
2023/10/27 20:52:33;;;;;;;18.13;10.95;;;;;;;9.18;100.00;98398.63;10323712;28;20122;-80
2023/10/27 20:57:38;;;;;;;20.80;11.90;;;;;;;9.34;100.00;98399.69;10315141;28;20046;-82
2023/10/27 21:02:41;;;;;;;20.90;11.07;;;;;;;9.21;100.00;98406.34;10308931;28;20050;-81
2023/10/27 21:07:44;;;;;;;14.40;9.48;;;;;;;9.12;100.00;98428.75;10304318;28;20458;-82
2023/10/27 21:12:49;;;;;;;18.75;12.40;;;;;;;9.33;100.00;98417.63;10298914;28;20493;-82
2023/10/27 21:17:56;;;;;;;19.10;11.40;;;;;;;9.28;100.00;98422.63;10299422;28;20049;-82
2023/10/27 21:22:59;;;;;;;9.95;6.32;;;;;;;9.18;100.00;98416.56;10295965;28;20050;-81
2023/10/27 21:28:05;;;;;;;8.90;6.28;;;;;;;9.15;100.00;98420.41;10302098;28;20045;-82
2023/10/27 21:33:09;;;;;;;24.20;14.82;;;;;;;9.17;100.00;98415.72;10291452;28;20047;-81
2023/10/27 21:38:12;;;;;;;28.25;16.23;;;;;;;9.22;100.00;98428.63;10295734;28;20051;-80
2023/10/27 21:43:17;;;;;;;26.92;20.67;;;;;;;9.25;100.00;98429.16;10301513;28;20050;-82
2023/10/27 21:48:20;;;;;;;11.52;7.85;;;;;;;9.28;100.00;98428.81;10284801;28;20138;-81
2023/10/27 21:53:23;;;;;;;10.57;6.85;;;;;;;9.32;100.00;98436.50;10301169;28;20054;-81
2023/10/27 21:58:27;;;;;;;24.88;12.82;;;;;;;9.28;100.00;98441.38;10290810;28;20051;-80
2023/10/27 22:03:32;;;;;;;7.88;5.72;;;;;;;9.33;100.00;98447.09;10294465;28;20047;-81
2023/10/27 22:08:37;;;;;;;7.38;5.50;;;;;;;9.34;100.00;98451.44;10290067;28;20130;-80
2023/10/27 22:13:41;;;;;;;7.75;5.28;;;;;;;9.40;100.00;98456.13;10301026;28;20051;-82
2023/10/27 22:18:44;;;;;;;6.55;4.82;;;;;;;9.33;100.00;98455.13;10295163;28;20049;-80
2023/10/27 22:23:47;;;;;;;15.50;8.55;;;;;;;9.23;100.00;98449.06;10274766;28;20043;-81
2023/10/27 22:28:52;;;;;;;24.80;13.20;;;;;;;9.22;100.00;98442.03;10295880;28;20049;-79
2023/10/27 22:33:54;;;;;;;23.30;13.80;;;;;;;9.22;100.00;98460.78;10287510;28;20043;-81
2023/10/27 22:38:57;;;;;;;23.55;12.98;;;;;;;9.51;100.00;98468.38;10293382;28;20097;-80
2023/10/27 22:44:02;;;;;;;17.70;10.80;;;;;;;9.56;100.00;98486.66;10287768;28;20039;-80
2023/10/27 22:49:05;;;;;;;19.85;11.95;;;;;;;9.35;100.00;98485.28;10302504;28;20043;-81
2023/10/27 22:54:07;;;;;;;30.15;13.75;;;;;;;9.36;100.00;98484.25;10291458;28;20062;-81
2023/10/27 22:59:12;;;;;;;41.72;21.75;;;;;;;9.47;100.00;98485.81;10303234;28;20054;-80
2023/10/27 23:04:15;;;;;;;40.08;22.23;;;;;;;9.49;100.00;98476.59;10283604;28;20039;-80